sensor_id;sensor_type;location;lat;lon;timestamp;P1;durP1;ratioP1;P2;durP2;ratioP2
12689;SDS011;6409;56.294;14.480;2023-04-24T00:01:03;1.67;;;1.40;;
12689;SDS011;6409;56.294;14.480;2023-04-24T00:03:33;2.27;;;1.23;;
12689;SDS011;6409;56.294;14.480;2023-04-24T00:06:01;15.00;;;1.33;;
12689;SDS011;6409;56.294;14.480;2023-04-24T00:08:28;89.40;;;2.77;;
12689;SDS011;6409;56.294;14.480;2023-04-24T00:10:55;1.30;;;1.20;;
12689;SDS011;6409;56.294;14.480;2023-04-24T00:13:22;17.47;;;2.30;;
12689;SDS011;6409;56.294;14.480;2023-04-24T00:15:49;1.40;;;1.30;;
12689;SDS011;6409;56.294;14.480;2023-04-24T00:18:16;1.43;;;1.33;;
12689;SDS011;6409;56.294;14.480;2023-04-24T00:20:44;1.93;;;1.00;;
12689;SDS011;6409;56.294;14.480;2023-04-24T00:23:11;2.97;;;1.07;;
12689;SDS011;6409;56.294;14.480;2023-04-24T00:25:39;1.20;;;1.10;;
12689;SDS011;6409;56.294;14.480;2023-04-24T00:28:06;1.30;;;1.20;;
12689;SDS011;6409;56.294;14.480;2023-04-24T00:30:33;1.37;;;1.23;;
12689;SDS011;6409;56.294;14.480;2023-04-24T00:33:00;10.83;;;1.50;;
12689;SDS011;6409;56.294;14.480;2023-04-24T00:35:27;3.60;;;1.47;;
12689;SDS011;6409;56.294;14.480;2023-04-24T00:37:55;1.30;;;1.03;;
12689;SDS011;6409;56.294;14.480;2023-04-24T00:40:22;36.17;;;1.73;;
12689;SDS011;6409;56.294;14.480;2023-04-24T00:42:49;1.23;;;1.13;;
12689;SDS011;6409;56.294;14.480;2023-04-24T00:45:16;5.00;;;1.80;;
12689;SDS011;6409;56.294;14.480;2023-04-24T00:47:43;9.80;;;1.80;;
12689;SDS011;6409;56.294;14.480;2023-04-24T00:50:11;16.57;;;2.17;;
12689;SDS011;6409;56.294;14.480;2023-04-24T00:52:39;2.57;;;1.27;;
12689;SDS011;6409;56.294;14.480;2023-04-24T00:55:08;3.73;;;1.50;;
12689;SDS011;6409;56.294;14.480;2023-04-24T00:57:35;27.87;;;1.77;;
12689;SDS011;6409;56.294;14.480;2023-04-24T01:00:03;1.37;;;1.30;;
12689;SDS011;6409;56.294;14.480;2023-04-24T01:02:36;36.73;;;1.93;;
12689;SDS011;6409;56.294;14.480;2023-04-24T01:05:05;1.47;;;1.03;;
12689;SDS011;6409;56.294;14.480;2023-04-24T01:07:33;12.80;;;2.20;;
12689;SDS011;6409;56.294;14.480;2023-04-24T01:10:00;1.57;;;1.27;;
12689;SDS011;6409;56.294;14.480;2023-04-24T01:12:28;1.43;;;1.33;;
12689;SDS011;6409;56.294;14.480;2023-04-24T01:14:56;17.93;;;1.73;;
12689;SDS011;6409;56.294;14.480;2023-04-24T01:17:23;14.53;;;2.10;;
12689;SDS011;6409;56.294;14.480;2023-04-24T01:19:50;8.47;;;1.93;;
12689;SDS011;6409;56.294;14.480;2023-04-24T01:22:20;10.27;;;2.40;;
12689;SDS011;6409;56.294;14.480;2023-04-24T01:24:47;4.63;;;1.00;;
12689;SDS011;6409;56.294;14.480;2023-04-24T01:27:14;27.43;;;2.07;;
12689;SDS011;6409;56.294;14.480;2023-04-24T01:29:41;11.07;;;1.43;;
12689;SDS011;6409;56.294;14.480;2023-04-24T01:32:08;1.23;;;1.03;;
12689;SDS011;6409;56.294;14.480;2023-04-24T01:34:35;15.47;;;1.40;;
12689;SDS011;6409;56.294;14.480;2023-04-24T01:37:04;2.30;;;1.37;;
12689;SDS011;6409;56.294;14.480;2023-04-24T01:39:32;3.03;;;1.27;;
12689;SDS011;6409;56.294;14.480;2023-04-24T01:41:59;1.93;;;1.43;;
12689;SDS011;6409;56.294;14.480;2023-04-24T01:44:27;1.10;;;1.00;;
12689;SDS011;6409;56.294;14.480;2023-04-24T01:46:54;5.70;;;1.17;;
12689;SDS011;6409;56.294;14.480;2023-04-24T01:49:21;1.80;;;1.70;;
12689;SDS011;6409;56.294;14.480;2023-04-24T01:51:48;11.20;;;0.83;;
12689;SDS011;6409;56.294;14.480;2023-04-24T01:54:15;1.20;;;1.10;;
12689;SDS011;6409;56.294;14.480;2023-04-24T01:56:44;13.17;;;1.30;;
12689;SDS011;6409;56.294;14.480;2023-04-24T01:59:12;19.30;;;1.93;;
12689;SDS011;6409;56.294;14.480;2023-04-24T02:01:39;21.27;;;1.70;;
12689;SDS011;6409;56.294;14.480;2023-04-24T02:04:06;1.23;;;1.17;;
12689;SDS011;6409;56.294;14.480;2023-04-24T02:06:34;9.03;;;1.30;;
12689;SDS011;6409;56.294;14.480;2023-04-24T02:09:01;1.33;;;1.10;;
12689;SDS011;6409;56.294;14.480;2023-04-24T02:11:28;1.40;;;1.30;;
12689;SDS011;6409;56.294;14.480;2023-04-24T02:13:56;20.47;;;2.80;;
12689;SDS011;6409;56.294;14.480;2023-04-24T02:16:23;5.67;;;1.60;;
12689;SDS011;6409;56.294;14.480;2023-04-24T02:18:51;79.07;;;3.10;;
12689;SDS011;6409;56.294;14.480;2023-04-24T02:21:18;1.67;;;1.13;;
12689;SDS011;6409;56.294;14.480;2023-04-24T02:23:45;45.63;;;2.83;;
12689;SDS011;6409;56.294;14.480;2023-04-24T02:26:12;49.53;;;2.10;;
12689;SDS011;6409;56.294;14.480;2023-04-24T02:28:39;6.50;;;1.97;;
12689;SDS011;6409;56.294;14.480;2023-04-24T02:31:07;1.80;;;1.23;;
12689;SDS011;6409;56.294;14.480;2023-04-24T02:33:34;9.23;;;1.47;;
12689;SDS011;6409;56.294;14.480;2023-04-24T02:36:01;2.47;;;2.00;;
12689;SDS011;6409;56.294;14.480;2023-04-24T02:38:28;85.23;;;4.17;;
12689;SDS011;6409;56.294;14.480;2023-04-24T02:40:55;2.60;;;1.67;;
12689;SDS011;6409;56.294;14.480;2023-04-24T02:43:22;63.07;;;4.23;;
12689;SDS011;6409;56.294;14.480;2023-04-24T02:45:49;67.50;;;6.63;;
12689;SDS011;6409;56.294;14.480;2023-04-24T02:48:18;6.20;;;1.83;;
12689;SDS011;6409;56.294;14.480;2023-04-24T02:50:45;13.40;;;2.13;;
12689;SDS011;6409;56.294;14.480;2023-04-24T02:53:12;13.57;;;2.40;;
12689;SDS011;6409;56.294;14.480;2023-04-24T02:55:39;1.50;;;1.20;;
12689;SDS011;6409;56.294;14.480;2023-04-24T02:58:06;1.40;;;1.17;;
12689;SDS011;6409;56.294;14.480;2023-04-24T03:00:33;1.43;;;1.33;;
12689;SDS011;6409;56.294;14.480;2023-04-24T03:03:00;1.57;;;1.47;;
12689;SDS011;6409;56.294;14.480;2023-04-24T03:05:29;2.97;;;1.50;;
12689;SDS011;6409;56.294;14.480;2023-04-24T03:07:57;18.00;;;1.70;;
12689;SDS011;6409;56.294;14.480;2023-04-24T03:10:23;6.37;;;1.53;;
12689;SDS011;6409;56.294;14.480;2023-04-24T03:12:51;1.33;;;1.23;;
12689;SDS011;6409;56.294;14.480;2023-04-24T03:15:18;7.33;;;1.70;;
12689;SDS011;6409;56.294;14.480;2023-04-24T03:17:45;1.73;;;1.63;;
12689;SDS011;6409;56.294;14.480;2023-04-24T03:20:12;9.30;;;1.83;;
12689;SDS011;6409;56.294;14.480;2023-04-24T03:22:41;33.27;;;2.10;;
12689;SDS011;6409;56.294;14.480;2023-04-24T03:25:08;144.57;;;4.77;;
12689;SDS011;6409;56.294;14.480;2023-04-24T03:27:35;37.13;;;2.60;;
12689;SDS011;6409;56.294;14.480;2023-04-24T03:30:02;111.37;;;4.30;;
12689;SDS011;6409;56.294;14.480;2023-04-24T03:32:30;42.80;;;2.47;;
12689;SDS011;6409;56.294;14.480;2023-04-24T03:34:57;1.70;;;1.60;;
12689;SDS011;6409;56.294;14.480;2023-04-24T03:37:24;4.27;;;2.27;;
12689;SDS011;6409;56.294;14.480;2023-04-24T03:39:53;5.17;;;2.87;;
12689;SDS011;6409;56.294;14.480;2023-04-24T03:42:20;19.77;;;1.20;;
12689;SDS011;6409;56.294;14.480;2023-04-24T03:44:47;8.73;;;1.50;;
12689;SDS011;6409;56.294;14.480;2023-04-24T03:47:13;6.57;;;3.00;;
12689;SDS011;6409;56.294;14.480;2023-04-24T03:49:40;17.23;;;2.27;;
12689;SDS011;6409;56.294;14.480;2023-04-24T03:52:07;29.57;;;3.13;;
12689;SDS011;6409;56.294;14.480;2023-04-24T03:54:34;1.70;;;1.60;;
12689;SDS011;6409;56.294;14.480;2023-04-24T03:57:03;27.27;;;3.00;;
12689;SDS011;6409;56.294;14.480;2023-04-24T03:59:30;64.57;;;4.40;;
12689;SDS011;6409;56.294;14.480;2023-04-24T04:01:57;17.07;;;2.30;;
12689;SDS011;6409;56.294;14.480;2023-04-24T04:04:24;24.43;;;2.30;;
12689;SDS011;6409;56.294;14.480;2023-04-24T04:06:51;95.53;;;5.23;;
12689;SDS011;6409;56.294;14.480;2023-04-24T04:09:18;30.20;;;3.47;;
12689;SDS011;6409;56.294;14.480;2023-04-24T04:11:45;37.50;;;3.10;;
12689;SDS011;6409;56.294;14.480;2023-04-24T04:14:13;42.87;;;4.10;;
12689;SDS011;6409;56.294;14.480;2023-04-24T04:16:40;132.13;;;5.03;;
12689;SDS011;6409;56.294;14.480;2023-04-24T04:19:08;28.07;;;3.23;;
12689;SDS011;6409;56.294;14.480;2023-04-24T04:21:35;106.47;;;5.87;;
12689;SDS011;6409;56.294;14.480;2023-04-24T04:24:02;59.03;;;6.13;;
12689;SDS011;6409;56.294;14.480;2023-04-24T04:26:30;14.30;;;2.30;;
12689;SDS011;6409;56.294;14.480;2023-04-24T04:28:57;11.70;;;3.80;;
12689;SDS011;6409;56.294;14.480;2023-04-24T04:31:27;15.63;;;4.70;;
12689;SDS011;6409;56.294;14.480;2023-04-24T04:33:54;20.23;;;5.33;;
12689;SDS011;6409;56.294;14.480;2023-04-24T04:36:21;19.13;;;3.50;;
12689;SDS011;6409;56.294;14.480;2023-04-24T04:38:49;8.23;;;3.00;;
12689;SDS011;6409;56.294;14.480;2023-04-24T04:41:16;24.17;;;2.83;;
12689;SDS011;6409;56.294;14.480;2023-04-24T04:43:43;27.10;;;2.07;;
12689;SDS011;6409;56.294;14.480;2023-04-24T04:46:11;92.00;;;9.70;;
12689;SDS011;6409;56.294;14.480;2023-04-24T04:48:40;68.77;;;4.57;;
12689;SDS011;6409;56.294;14.480;2023-04-24T04:51:07;33.97;;;4.10;;
12689;SDS011;6409;56.294;14.480;2023-04-24T04:53:34;71.67;;;6.63;;
12689;SDS011;6409;56.294;14.480;2023-04-24T04:56:01;68.77;;;8.00;;
12689;SDS011;6409;56.294;14.480;2023-04-24T04:58:28;22.70;;;3.90;;
12689;SDS011;6409;56.294;14.480;2023-04-24T05:00:55;63.20;;;4.63;;
12689;SDS011;6409;56.294;14.480;2023-04-24T05:03:23;84.40;;;4.33;;
12689;SDS011;6409;56.294;14.480;2023-04-24T05:05:51;18.30;;;3.17;;
12689;SDS011;6409;56.294;14.480;2023-04-24T05:08:18;61.27;;;4.60;;
12689;SDS011;6409;56.294;14.480;2023-04-24T05:10:45;55.17;;;4.40;;
12689;SDS011;6409;56.294;14.480;2023-04-24T05:13:12;54.77;;;4.60;;
12689;SDS011;6409;56.294;14.480;2023-04-24T05:15:40;98.20;;;8.07;;
12689;SDS011;6409;56.294;14.480;2023-04-24T05:18:07;91.63;;;4.47;;
12689;SDS011;6409;56.294;14.480;2023-04-24T05:20:34;81.57;;;4.97;;
12689;SDS011;6409;56.294;14.480;2023-04-24T05:23:02;46.93;;;5.57;;
12689;SDS011;6409;56.294;14.480;2023-04-24T05:25:29;128.93;;;11.03;;
12689;SDS011;6409;56.294;14.480;2023-04-24T05:28:00;99.13;;;7.17;;
12689;SDS011;6409;56.294;14.480;2023-04-24T05:30:27;76.03;;;6.30;;
12689;SDS011;6409;56.294;14.480;2023-04-24T05:32:54;79.87;;;8.97;;
12689;SDS011;6409;56.294;14.480;2023-04-24T05:35:21;41.03;;;4.40;;
12689;SDS011;6409;56.294;14.480;2023-04-24T05:37:48;16.27;;;4.50;;
12689;SDS011;6409;56.294;14.480;2023-04-24T05:40:16;183.43;;;12.13;;
12689;SDS011;6409;56.294;14.480;2023-04-24T05:42:44;70.00;;;7.00;;
12689;SDS011;6409;56.294;14.480;2023-04-24T05:45:12;119.00;;;7.00;;
12689;SDS011;6409;56.294;14.480;2023-04-24T05:47:41;45.60;;;3.70;;
12689;SDS011;6409;56.294;14.480;2023-04-24T05:50:09;45.90;;;7.37;;
12689;SDS011;6409;56.294;14.480;2023-04-24T05:52:36;104.30;;;7.20;;
12689;SDS011;6409;56.294;14.480;2023-04-24T05:55:03;108.40;;;9.30;;
12689;SDS011;6409;56.294;14.480;2023-04-24T05:57:32;57.00;;;5.43;;
12689;SDS011;6409;56.294;14.480;2023-04-24T05:59:59;45.73;;;6.37;;
12689;SDS011;6409;56.294;14.480;2023-04-24T06:02:26;85.97;;;7.03;;
12689;SDS011;6409;56.294;14.480;2023-04-24T06:04:57;23.70;;;3.53;;
12689;SDS011;6409;56.294;14.480;2023-04-24T06:07:24;72.80;;;5.63;;
12689;SDS011;6409;56.294;14.480;2023-04-24T06:09:52;95.17;;;8.13;;
12689;SDS011;6409;56.294;14.480;2023-04-24T06:12:19;38.20;;;4.67;;
12689;SDS011;6409;56.294;14.480;2023-04-24T06:14:47;25.37;;;4.60;;
12689;SDS011;6409;56.294;14.480;2023-04-24T06:17:15;17.00;;;3.97;;
12689;SDS011;6409;56.294;14.480;2023-04-24T06:19:42;91.70;;;6.57;;
12689;SDS011;6409;56.294;14.480;2023-04-24T06:22:09;92.60;;;6.60;;
12689;SDS011;6409;56.294;14.480;2023-04-24T06:24:36;140.60;;;7.23;;
12689;SDS011;6409;56.294;14.480;2023-04-24T06:27:03;73.13;;;5.20;;
12689;SDS011;6409;56.294;14.480;2023-04-24T06:29:30;84.87;;;4.83;;
12689;SDS011;6409;56.294;14.480;2023-04-24T06:31:58;34.90;;;5.47;;
12689;SDS011;6409;56.294;14.480;2023-04-24T06:34:25;86.43;;;6.43;;
12689;SDS011;6409;56.294;14.480;2023-04-24T06:36:52;62.60;;;5.80;;
12689;SDS011;6409;56.294;14.480;2023-04-24T06:39:20;31.77;;;3.50;;
12689;SDS011;6409;56.294;14.480;2023-04-24T06:41:47;50.47;;;6.47;;
12689;SDS011;6409;56.294;14.480;2023-04-24T06:44:14;103.17;;;6.13;;
12689;SDS011;6409;56.294;14.480;2023-04-24T06:46:41;48.50;;;4.03;;
12689;SDS011;6409;56.294;14.480;2023-04-24T06:49:10;27.37;;;3.50;;
12689;SDS011;6409;56.294;14.480;2023-04-24T06:51:37;36.27;;;5.07;;
12689;SDS011;6409;56.294;14.480;2023-04-24T06:54:04;34.00;;;5.73;;
12689;SDS011;6409;56.294;14.480;2023-04-24T06:56:31;19.80;;;5.37;;
12689;SDS011;6409;56.294;14.480;2023-04-24T06:58:59;5.93;;;3.00;;
12689;SDS011;6409;56.294;14.480;2023-04-24T07:01:26;29.27;;;4.80;;
12689;SDS011;6409;56.294;14.480;2023-04-24T07:03:53;38.80;;;3.60;;
12689;SDS011;6409;56.294;14.480;2023-04-24T07:06:21;25.73;;;3.40;;
12689;SDS011;6409;56.294;14.480;2023-04-24T07:08:48;30.00;;;3.73;;
12689;SDS011;6409;56.294;14.480;2023-04-24T07:11:16;17.63;;;3.37;;
12689;SDS011;6409;56.294;14.480;2023-04-24T07:13:43;27.97;;;5.10;;
12689;SDS011;6409;56.294;14.480;2023-04-24T07:16:10;9.53;;;3.67;;
12689;SDS011;6409;56.294;14.480;2023-04-24T07:18:38;23.37;;;5.10;;
12689;SDS011;6409;56.294;14.480;2023-04-24T07:21:05;19.23;;;5.40;;
12689;SDS011;6409;56.294;14.480;2023-04-24T07:23:33;28.77;;;5.03;;
12689;SDS011;6409;56.294;14.480;2023-04-24T07:26:00;9.37;;;4.17;;
12689;SDS011;6409;56.294;14.480;2023-04-24T07:28:27;7.80;;;4.83;;
12689;SDS011;6409;56.294;14.480;2023-04-24T07:30:56;16.33;;;5.23;;
12689;SDS011;6409;56.294;14.480;2023-04-24T07:33:23;7.67;;;4.07;;
12689;SDS011;6409;56.294;14.480;2023-04-24T07:35:50;8.30;;;4.20;;
12689;SDS011;6409;56.294;14.480;2023-04-24T07:38:18;13.53;;;5.60;;
12689;SDS011;6409;56.294;14.480;2023-04-24T07:40:48;10.57;;;4.10;;
12689;SDS011;6409;56.294;14.480;2023-04-24T07:43:15;6.60;;;4.53;;
12689;SDS011;6409;56.294;14.480;2023-04-24T07:45:42;6.73;;;4.03;;
12689;SDS011;6409;56.294;14.480;2023-04-24T07:48:09;10.70;;;4.87;;
12689;SDS011;6409;56.294;14.480;2023-04-24T07:50:36;13.13;;;4.77;;
12689;SDS011;6409;56.294;14.480;2023-04-24T07:53:03;5.97;;;4.23;;
12689;SDS011;6409;56.294;14.480;2023-04-24T07:55:30;6.77;;;4.90;;
12689;SDS011;6409;56.294;14.480;2023-04-24T07:57:58;7.83;;;4.80;;
12689;SDS011;6409;56.294;14.480;2023-04-24T08:00:25;5.77;;;4.20;;
12689;SDS011;6409;56.294;14.480;2023-04-24T08:02:52;6.00;;;3.97;;
12689;SDS011;6409;56.294;14.480;2023-04-24T08:05:19;7.57;;;4.03;;
12689;SDS011;6409;56.294;14.480;2023-04-24T08:07:46;6.80;;;4.53;;
12689;SDS011;6409;56.294;14.480;2023-04-24T08:10:15;7.70;;;5.03;;
12689;SDS011;6409;56.294;14.480;2023-04-24T08:12:42;8.67;;;4.57;;
12689;SDS011;6409;56.294;14.480;2023-04-24T08:15:11;7.60;;;4.57;;
12689;SDS011;6409;56.294;14.480;2023-04-24T08:17:38;7.83;;;5.10;;
12689;SDS011;6409;56.294;14.480;2023-04-24T08:20:05;9.57;;;5.90;;
12689;SDS011;6409;56.294;14.480;2023-04-24T08:22:38;9.70;;;5.13;;
12689;SDS011;6409;56.294;14.480;2023-04-24T08:25:05;10.60;;;5.33;;
12689;SDS011;6409;56.294;14.480;2023-04-24T08:27:33;10.93;;;6.40;;
12689;SDS011;6409;56.294;14.480;2023-04-24T08:30:02;9.10;;;6.03;;
12689;SDS011;6409;56.294;14.480;2023-04-24T08:32:31;12.70;;;6.00;;
12689;SDS011;6409;56.294;14.480;2023-04-24T08:34:58;15.27;;;5.27;;
12689;SDS011;6409;56.294;14.480;2023-04-24T08:37:25;9.07;;;5.63;;
12689;SDS011;6409;56.294;14.480;2023-04-24T08:39:53;18.83;;;6.87;;
12689;SDS011;6409;56.294;14.480;2023-04-24T08:42:20;10.47;;;5.10;;
12689;SDS011;6409;56.294;14.480;2023-04-24T08:44:48;7.97;;;4.57;;
12689;SDS011;6409;56.294;14.480;2023-04-24T08:47:15;11.10;;;5.13;;
12689;SDS011;6409;56.294;14.480;2023-04-24T08:49:44;8.90;;;4.63;;
12689;SDS011;6409;56.294;14.480;2023-04-24T08:52:11;8.47;;;4.53;;
12689;SDS011;6409;56.294;14.480;2023-04-24T08:54:39;5.37;;;3.80;;
12689;SDS011;6409;56.294;14.480;2023-04-24T08:57:06;5.27;;;3.70;;
12689;SDS011;6409;56.294;14.480;2023-04-24T08:59:36;9.57;;;4.63;;
12689;SDS011;6409;56.294;14.480;2023-04-24T09:02:04;12.67;;;4.63;;
12689;SDS011;6409;56.294;14.480;2023-04-24T09:04:31;11.03;;;4.93;;
12689;SDS011;6409;56.294;14.480;2023-04-24T09:07:01;7.07;;;4.40;;
12689;SDS011;6409;56.294;14.480;2023-04-24T09:09:29;11.10;;;5.20;;
12689;SDS011;6409;56.294;14.480;2023-04-24T09:11:57;7.27;;;4.03;;
12689;SDS011;6409;56.294;14.480;2023-04-24T09:14:25;10.83;;;5.47;;
12689;SDS011;6409;56.294;14.480;2023-04-24T09:16:53;8.33;;;5.00;;
12689;SDS011;6409;56.294;14.480;2023-04-24T09:19:20;9.07;;;5.30;;
12689;SDS011;6409;56.294;14.480;2023-04-24T09:21:47;8.50;;;4.87;;
12689;SDS011;6409;56.294;14.480;2023-04-24T09:24:16;11.13;;;5.10;;
12689;SDS011;6409;56.294;14.480;2023-04-24T09:26:47;10.30;;;6.03;;
12689;SDS011;6409;56.294;14.480;2023-04-24T09:29:14;9.30;;;5.37;;
12689;SDS011;6409;56.294;14.480;2023-04-24T09:31:42;9.07;;;5.57;;
12689;SDS011;6409;56.294;14.480;2023-04-24T09:34:09;12.13;;;5.53;;
12689;SDS011;6409;56.294;14.480;2023-04-24T09:36:36;7.77;;;4.53;;
12689;SDS011;6409;56.294;14.480;2023-04-24T09:39:06;12.73;;;5.27;;
12689;SDS011;6409;56.294;14.480;2023-04-24T09:41:38;7.03;;;4.77;;
12689;SDS011;6409;56.294;14.480;2023-04-24T09:44:11;7.87;;;4.60;;
12689;SDS011;6409;56.294;14.480;2023-04-24T09:46:38;7.20;;;4.30;;
12689;SDS011;6409;56.294;14.480;2023-04-24T09:49:08;9.57;;;5.30;;
12689;SDS011;6409;56.294;14.480;2023-04-24T09:51:37;10.50;;;4.90;;
12689;SDS011;6409;56.294;14.480;2023-04-24T09:54:05;10.27;;;5.00;;
12689;SDS011;6409;56.294;14.480;2023-04-24T09:56:43;9.97;;;5.27;;
12689;SDS011;6409;56.294;14.480;2023-04-24T09:59:11;8.07;;;4.43;;
12689;SDS011;6409;56.294;14.480;2023-04-24T10:01:38;8.20;;;5.00;;
12689;SDS011;6409;56.294;14.480;2023-04-24T10:04:14;9.47;;;4.70;;
12689;SDS011;6409;56.294;14.480;2023-04-24T10:06:43;11.33;;;5.73;;
12689;SDS011;6409;56.294;14.480;2023-04-24T10:09:10;7.43;;;4.53;;
12689;SDS011;6409;56.294;14.480;2023-04-24T10:11:39;8.13;;;5.10;;
12689;SDS011;6409;56.294;14.480;2023-04-24T10:14:10;9.47;;;4.83;;
12689;SDS011;6409;56.294;14.480;2023-04-24T10:16:39;6.13;;;4.90;;
12689;SDS011;6409;56.294;14.480;2023-04-24T10:19:06;6.33;;;4.40;;
12689;SDS011;6409;56.294;14.480;2023-04-24T10:21:34;6.07;;;4.20;;
12689;SDS011;6409;56.294;14.480;2023-04-24T10:24:02;10.57;;;4.60;;
12689;SDS011;6409;56.294;14.480;2023-04-24T10:26:30;8.27;;;5.30;;
12689;SDS011;6409;56.294;14.480;2023-04-24T10:28:59;9.47;;;4.77;;
12689;SDS011;6409;56.294;14.480;2023-04-24T10:31:26;8.20;;;4.13;;
12689;SDS011;6409;56.294;14.480;2023-04-24T10:33:54;6.50;;;4.20;;
12689;SDS011;6409;56.294;14.480;2023-04-24T10:36:21;5.60;;;3.53;;
12689;SDS011;6409;56.294;14.480;2023-04-24T10:38:49;9.20;;;4.67;;
12689;SDS011;6409;56.294;14.480;2023-04-24T10:41:16;7.60;;;4.27;;
12689;SDS011;6409;56.294;14.480;2023-04-24T10:43:48;6.23;;;4.17;;
12689;SDS011;6409;56.294;14.480;2023-04-24T10:46:21;6.50;;;4.07;;
12689;SDS011;6409;56.294;14.480;2023-04-24T10:48:52;6.07;;;4.00;;
12689;SDS011;6409;56.294;14.480;2023-04-24T10:51:21;6.10;;;3.23;;
12689;SDS011;6409;56.294;14.480;2023-04-24T10:53:49;6.80;;;3.73;;
12689;SDS011;6409;56.294;14.480;2023-04-24T10:56:16;3.73;;;3.20;;
12689;SDS011;6409;56.294;14.480;2023-04-24T10:58:44;3.90;;;3.10;;
12689;SDS011;6409;56.294;14.480;2023-04-24T11:01:24;4.03;;;3.27;;
12689;SDS011;6409;56.294;14.480;2023-04-24T11:03:54;3.40;;;3.00;;
12689;SDS011;6409;56.294;14.480;2023-04-24T11:06:28;3.23;;;2.60;;
12689;SDS011;6409;56.294;14.480;2023-04-24T11:08:59;6.03;;;2.60;;
12689;SDS011;6409;56.294;14.480;2023-04-24T11:11:29;3.93;;;2.90;;
12689;SDS011;6409;56.294;14.480;2023-04-24T11:14:03;3.60;;;2.50;;
12689;SDS011;6409;56.294;14.480;2023-04-24T11:16:33;5.77;;;2.90;;
12689;SDS011;6409;56.294;14.480;2023-04-24T11:19:03;4.27;;;2.83;;
12689;SDS011;6409;56.294;14.480;2023-04-24T11:21:32;3.20;;;2.63;;
12689;SDS011;6409;56.294;14.480;2023-04-24T11:26:54;3.20;;;2.40;;
12689;SDS011;6409;56.294;14.480;2023-04-24T11:29:21;3.17;;;2.37;;
12689;SDS011;6409;56.294;14.480;2023-04-24T11:31:50;3.47;;;2.90;;
12689;SDS011;6409;56.294;14.480;2023-04-24T11:34:17;3.47;;;2.67;;
12689;SDS011;6409;56.294;14.480;2023-04-24T11:36:44;3.20;;;2.57;;
12689;SDS011;6409;56.294;14.480;2023-04-24T11:39:12;5.20;;;2.87;;
12689;SDS011;6409;56.294;14.480;2023-04-24T11:41:39;3.17;;;2.50;;
12689;SDS011;6409;56.294;14.480;2023-04-24T11:44:07;3.97;;;2.70;;
12689;SDS011;6409;56.294;14.480;2023-04-24T11:46:35;3.27;;;2.43;;
12689;SDS011;6409;56.294;14.480;2023-04-24T11:49:06;3.60;;;2.60;;
12689;SDS011;6409;56.294;14.480;2023-04-24T11:51:33;3.40;;;2.47;;
12689;SDS011;6409;56.294;14.480;2023-04-24T11:54:01;3.53;;;2.80;;
12689;SDS011;6409;56.294;14.480;2023-04-24T11:56:28;3.73;;;3.00;;
12689;SDS011;6409;56.294;14.480;2023-04-24T11:58:55;5.77;;;2.87;;
12689;SDS011;6409;56.294;14.480;2023-04-24T12:01:22;5.20;;;3.50;;
12689;SDS011;6409;56.294;14.480;2023-04-24T12:03:49;3.73;;;2.70;;
12689;SDS011;6409;56.294;14.480;2023-04-24T12:06:18;4.97;;;2.97;;
12689;SDS011;6409;56.294;14.480;2023-04-24T12:08:46;4.63;;;2.83;;
12689;SDS011;6409;56.294;14.480;2023-04-24T12:11:14;3.33;;;2.63;;
12689;SDS011;6409;56.294;14.480;2023-04-24T12:13:44;3.47;;;2.83;;
12689;SDS011;6409;56.294;14.480;2023-04-24T12:16:11;3.23;;;2.53;;
12689;SDS011;6409;56.294;14.480;2023-04-24T12:18:42;5.93;;;3.07;;
12689;SDS011;6409;56.294;14.480;2023-04-24T12:21:21;4.40;;;3.37;;
12689;SDS011;6409;56.294;14.480;2023-04-24T12:23:53;3.67;;;3.23;;
12689;SDS011;6409;56.294;14.480;2023-04-24T12:26:21;4.87;;;3.17;;
12689;SDS011;6409;56.294;14.480;2023-04-24T12:28:49;4.67;;;3.47;;
12689;SDS011;6409;56.294;14.480;2023-04-24T12:31:16;7.53;;;4.63;;
12689;SDS011;6409;56.294;14.480;2023-04-24T12:33:43;5.13;;;3.73;;
12689;SDS011;6409;56.294;14.480;2023-04-24T12:36:10;5.33;;;3.50;;
12689;SDS011;6409;56.294;14.480;2023-04-24T12:38:42;9.43;;;4.40;;
12689;SDS011;6409;56.294;14.480;2023-04-24T12:41:11;8.47;;;3.60;;
12689;SDS011;6409;56.294;14.480;2023-04-24T12:43:50;6.77;;;4.47;;
12689;SDS011;6409;56.294;14.480;2023-04-24T12:46:17;6.17;;;3.80;;
12689;SDS011;6409;56.294;14.480;2023-04-24T12:48:45;7.47;;;4.43;;
12689;SDS011;6409;56.294;14.480;2023-04-24T12:51:12;4.60;;;3.60;;
12689;SDS011;6409;56.294;14.480;2023-04-24T12:53:40;10.93;;;4.67;;
12689;SDS011;6409;56.294;14.480;2023-04-24T12:56:07;4.63;;;3.30;;
12689;SDS011;6409;56.294;14.480;2023-04-24T12:58:34;8.17;;;4.33;;
12689;SDS011;6409;56.294;14.480;2023-04-24T13:01:01;6.10;;;4.07;;
12689;SDS011;6409;56.294;14.480;2023-04-24T13:03:28;3.33;;;2.90;;
12689;SDS011;6409;56.294;14.480;2023-04-24T13:05:55;7.50;;;3.47;;
12689;SDS011;6409;56.294;14.480;2023-04-24T13:08:22;4.70;;;3.30;;
12689;SDS011;6409;56.294;14.480;2023-04-24T13:10:51;3.20;;;2.70;;
12689;SDS011;6409;56.294;14.480;2023-04-24T13:13:20;3.97;;;3.03;;
12689;SDS011;6409;56.294;14.480;2023-04-24T13:15:47;3.57;;;2.53;;
12689;SDS011;6409;56.294;14.480;2023-04-24T13:18:14;2.63;;;2.17;;
12689;SDS011;6409;56.294;14.480;2023-04-24T13:20:41;3.13;;;2.33;;
12689;SDS011;6409;56.294;14.480;2023-04-24T13:23:09;5.13;;;2.43;;
12689;SDS011;6409;56.294;14.480;2023-04-24T13:25:36;3.30;;;2.37;;
12689;SDS011;6409;56.294;14.480;2023-04-24T13:28:05;2.97;;;2.03;;
12689;SDS011;6409;56.294;14.480;2023-04-24T13:30:32;2.90;;;2.17;;
12689;SDS011;6409;56.294;14.480;2023-04-24T13:32:59;2.90;;;2.23;;
12689;SDS011;6409;56.294;14.480;2023-04-24T13:35:26;3.13;;;2.37;;
12689;SDS011;6409;56.294;14.480;2023-04-24T13:37:53;3.60;;;2.20;;
12689;SDS011;6409;56.294;14.480;2023-04-24T13:40:21;2.00;;;1.70;;
12689;SDS011;6409;56.294;14.480;2023-04-24T13:42:48;1.73;;;1.63;;
12689;SDS011;6409;56.294;14.480;2023-04-24T13:45:17;2.77;;;1.90;;
12689;SDS011;6409;56.294;14.480;2023-04-24T13:47:44;2.37;;;2.10;;
12689;SDS011;6409;56.294;14.480;2023-04-24T13:50:11;2.33;;;2.07;;
12689;SDS011;6409;56.294;14.480;2023-04-24T13:52:38;3.27;;;2.17;;
12689;SDS011;6409;56.294;14.480;2023-04-24T13:55:05;3.17;;;1.93;;
12689;SDS011;6409;56.294;14.480;2023-04-24T13:57:33;3.80;;;2.40;;
12689;SDS011;6409;56.294;14.480;2023-04-24T14:00:00;3.67;;;2.83;;
12689;SDS011;6409;56.294;14.480;2023-04-24T14:02:30;3.33;;;2.37;;
12689;SDS011;6409;56.294;14.480;2023-04-24T14:04:57;6.03;;;3.03;;
12689;SDS011;6409;56.294;14.480;2023-04-24T14:07:24;5.87;;;2.80;;
12689;SDS011;6409;56.294;14.480;2023-04-24T14:09:52;3.40;;;3.10;;
12689;SDS011;6409;56.294;14.480;2023-04-24T14:12:19;4.73;;;2.87;;
12689;SDS011;6409;56.294;14.480;2023-04-24T14:14:47;5.10;;;2.87;;
12689;SDS011;6409;56.294;14.480;2023-04-24T14:17:14;4.17;;;2.97;;
12689;SDS011;6409;56.294;14.480;2023-04-24T14:19:42;3.33;;;2.70;;
12689;SDS011;6409;56.294;14.480;2023-04-24T14:22:09;5.13;;;3.27;;
12689;SDS011;6409;56.294;14.480;2023-04-24T14:24:36;6.70;;;3.47;;
12689;SDS011;6409;56.294;14.480;2023-04-24T14:27:03;6.10;;;3.33;;
12689;SDS011;6409;56.294;14.480;2023-04-24T14:29:30;6.17;;;3.17;;
12689;SDS011;6409;56.294;14.480;2023-04-24T14:31:58;3.70;;;2.63;;
12689;SDS011;6409;56.294;14.480;2023-04-24T14:34:25;5.97;;;3.40;;
12689;SDS011;6409;56.294;14.480;2023-04-24T14:36:53;5.40;;;2.50;;
12689;SDS011;6409;56.294;14.480;2023-04-24T14:39:20;5.07;;;2.90;;
12689;SDS011;6409;56.294;14.480;2023-04-24T14:41:47;4.47;;;2.90;;
12689;SDS011;6409;56.294;14.480;2023-04-24T14:44:14;4.07;;;2.30;;
12689;SDS011;6409;56.294;14.480;2023-04-24T14:46:41;4.23;;;2.70;;
12689;SDS011;6409;56.294;14.480;2023-04-24T14:49:08;4.93;;;2.33;;